sensor_id;sensor_type;location;lat;lon;timestamp;P1;durP1;ratioP1;P2;durP2;ratioP2
60239;SDS011;46102;39.012;-7.064;2022-11-18T00:00:20;4.65;;;1.45;;
60239;SDS011;46102;39.012;-7.064;2022-11-18T00:02:21;8.32;;;1.52;;
60239;SDS011;46102;39.012;-7.064;2022-11-18T00:04:22;9.90;;;2.03;;
60239;SDS011;46102;39.012;-7.064;2022-11-18T00:06:24;9.50;;;1.10;;
60239;SDS011;46102;39.012;-7.064;2022-11-18T00:08:26;13.25;;;1.83;;
60239;SDS011;46102;39.012;-7.064;2022-11-18T00:10:27;10.73;;;1.33;;
60239;SDS011;46102;39.012;-7.064;2022-11-18T00:12:27;4.38;;;1.45;;
60239;SDS011;46102;39.012;-7.064;2022-11-18T00:14:47;9.63;;;1.48;;
60239;SDS011;46102;39.012;-7.064;2022-11-18T00:16:49;6.53;;;1.33;;
60239;SDS011;46102;39.012;-7.064;2022-11-18T00:18:52;6.68;;;1.50;;
60239;SDS011;46102;39.012;-7.064;2022-11-18T00:20:53;9.00;;;1.40;;
60239;SDS011;46102;39.012;-7.064;2022-11-18T00:22:54;13.82;;;1.90;;
60239;SDS011;46102;39.012;-7.064;2022-11-18T00:24:54;11.30;;;1.95;;
60239;SDS011;46102;39.012;-7.064;2022-11-18T00:26:55;9.30;;;1.50;;
60239;SDS011;46102;39.012;-7.064;2022-11-18T00:28:56;5.30;;;1.55;;
60239;SDS011;46102;39.012;-7.064;2022-11-18T00:31:04;8.23;;;1.40;;
60239;SDS011;46102;39.012;-7.064;2022-11-18T00:33:06;13.45;;;1.45;;
60239;SDS011;46102;39.012;-7.064;2022-11-18T00:35:07;12.27;;;1.85;;
60239;SDS011;46102;39.012;-7.064;2022-11-18T00:37:08;9.50;;;2.20;;
60239;SDS011;46102;39.012;-7.064;2022-11-18T00:39:12;9.13;;;1.63;;
60239;SDS011;46102;39.012;-7.064;2022-11-18T00:41:15;14.13;;;1.58;;
60239;SDS011;46102;39.012;-7.064;2022-11-18T00:43:15;7.20;;;2.67;;
60239;SDS011;46102;39.012;-7.064;2022-11-18T00:45:19;7.57;;;1.75;;
60239;SDS011;46102;39.012;-7.064;2022-11-18T00:49:21;12.40;;;1.95;;
60239;SDS011;46102;39.012;-7.064;2022-11-18T00:51:22;8.57;;;1.58;;
60239;SDS011;46102;39.012;-7.064;2022-11-18T00:53:23;10.80;;;1.90;;
60239;SDS011;46102;39.012;-7.064;2022-11-18T00:55:26;9.90;;;1.77;;
60239;SDS011;46102;39.012;-7.064;2022-11-18T00:57:26;13.98;;;1.90;;
60239;SDS011;46102;39.012;-7.064;2022-11-18T00:59:27;14.70;;;1.67;;
60239;SDS011;46102;39.012;-7.064;2022-11-18T01:01:28;17.48;;;1.88;;
60239;SDS011;46102;39.012;-7.064;2022-11-18T01:03:29;14.68;;;2.60;;
60239;SDS011;46102;39.012;-7.064;2022-11-18T01:05:30;5.18;;;1.80;;
60239;SDS011;46102;39.012;-7.064;2022-11-18T01:07:31;8.52;;;2.03;;
60239;SDS011;46102;39.012;-7.064;2022-11-18T01:09:31;12.02;;;2.00;;
60239;SDS011;46102;39.012;-7.064;2022-11-18T01:11:32;8.90;;;1.67;;
60239;SDS011;46102;39.012;-7.064;2022-11-18T01:13:51;14.77;;;2.83;;
60239;SDS011;46102;39.012;-7.064;2022-11-18T01:15:53;15.65;;;2.10;;
60239;SDS011;46102;39.012;-7.064;2022-11-18T01:17:56;5.90;;;1.77;;
60239;SDS011;46102;39.012;-7.064;2022-11-18T01:19:57;9.45;;;2.45;;
60239;SDS011;46102;39.012;-7.064;2022-11-18T01:21:58;17.23;;;2.33;;
60239;SDS011;46102;39.012;-7.064;2022-11-18T01:24:02;13.93;;;1.92;;
60239;SDS011;46102;39.012;-7.064;2022-11-18T01:26:03;12.27;;;2.08;;
60239;SDS011;46102;39.012;-7.064;2022-11-18T01:28:05;18.55;;;2.13;;
60239;SDS011;46102;39.012;-7.064;2022-11-18T01:30:07;11.18;;;2.35;;
60239;SDS011;46102;39.012;-7.064;2022-11-18T01:32:08;17.73;;;2.50;;
60239;SDS011;46102;39.012;-7.064;2022-11-18T01:34:09;10.38;;;2.00;;
60239;SDS011;46102;39.012;-7.064;2022-11-18T01:36:15;10.18;;;1.92;;
60239;SDS011;46102;39.012;-7.064;2022-11-18T01:38:21;11.27;;;1.77;;
60239;SDS011;46102;39.012;-7.064;2022-11-18T01:40:22;19.42;;;2.75;;
60239;SDS011;46102;39.012;-7.064;2022-11-18T01:42:26;11.82;;;2.20;;
60239;SDS011;46102;39.012;-7.064;2022-11-18T01:46:56;6.85;;;1.55;;
60239;SDS011;46102;39.012;-7.064;2022-11-18T01:51:08;11.05;;;1.73;;
60239;SDS011;46102;39.012;-7.064;2022-11-18T01:53:14;6.03;;;1.27;;
60239;SDS011;46102;39.012;-7.064;2022-11-18T01:55:24;11.55;;;1.85;;
60239;SDS011;46102;39.012;-7.064;2022-11-18T01:57:26;11.65;;;1.83;;
60239;SDS011;46102;39.012;-7.064;2022-11-18T01:59:30;6.15;;;2.63;;
60239;SDS011;46102;39.012;-7.064;2022-11-18T02:01:35;11.52;;;2.42;;
60239;SDS011;46102;39.012;-7.064;2022-11-18T02:03:36;8.55;;;2.08;;
60239;SDS011;46102;39.012;-7.064;2022-11-18T02:05:37;17.50;;;2.20;;
60239;SDS011;46102;39.012;-7.064;2022-11-18T02:07:41;18.90;;;3.38;;
60239;SDS011;46102;39.012;-7.064;2022-11-18T02:09:42;15.00;;;1.92;;
60239;SDS011;46102;39.012;-7.064;2022-11-18T02:11:43;9.98;;;1.52;;
60239;SDS011;46102;39.012;-7.064;2022-11-18T02:13:50;14.52;;;2.72;;
60239;SDS011;46102;39.012;-7.064;2022-11-18T02:20:31;8.70;;;1.73;;
60239;SDS011;46102;39.012;-7.064;2022-11-18T02:29:51;22.85;;;2.20;;
60239;SDS011;46102;39.012;-7.064;2022-11-18T02:32:12;13.60;;;2.65;;
60239;SDS011;46102;39.012;-7.064;2022-11-18T02:36:52;7.88;;;1.67;;
60239;SDS011;46102;39.012;-7.064;2022-11-18T02:39:14;10.48;;;2.05;;
60239;SDS011;46102;39.012;-7.064;2022-11-18T02:41:24;8.48;;;2.47;;
60239;SDS011;46102;39.012;-7.064;2022-11-18T02:43:30;17.15;;;2.38;;
60239;SDS011;46102;39.012;-7.064;2022-11-18T02:45:36;8.15;;;2.22;;
60239;SDS011;46102;39.012;-7.064;2022-11-18T02:49:43;14.10;;;1.58;;
60239;SDS011;46102;39.012;-7.064;2022-11-18T02:51:49;9.85;;;2.20;;
60239;SDS011;46102;39.012;-7.064;2022-11-18T02:53:52;13.50;;;2.20;;
60239;SDS011;46102;39.012;-7.064;2022-11-18T02:55:56;10.85;;;1.65;;
60239;SDS011;46102;39.012;-7.064;2022-11-18T02:57:59;9.80;;;1.92;;
60239;SDS011;46102;39.012;-7.064;2022-11-18T03:00:02;11.27;;;1.80;;
60239;SDS011;46102;39.012;-7.064;2022-11-18T03:02:03;13.90;;;2.65;;
60239;SDS011;46102;39.012;-7.064;2022-11-18T03:04:04;14.82;;;2.70;;
60239;SDS011;46102;39.012;-7.064;2022-11-18T03:08:26;14.18;;;2.33;;
60239;SDS011;46102;39.012;-7.064;2022-11-18T03:10:40;11.90;;;2.00;;
60239;SDS011;46102;39.012;-7.064;2022-11-18T03:17:42;10.52;;;2.40;;
60239;SDS011;46102;39.012;-7.064;2022-11-18T03:21:58;16.67;;;2.13;;
60239;SDS011;46102;39.012;-7.064;2022-11-18T03:24:10;8.93;;;2.35;;
60239;SDS011;46102;39.012;-7.064;2022-11-18T03:26:21;12.77;;;2.63;;
60239;SDS011;46102;39.012;-7.064;2022-11-18T03:28:37;11.70;;;2.03;;
60239;SDS011;46102;39.012;-7.064;2022-11-18T03:30:45;11.32;;;2.30;;
60239;SDS011;46102;39.012;-7.064;2022-11-18T03:32:57;8.77;;;2.67;;
60239;SDS011;46102;39.012;-7.064;2022-11-18T03:35:03;10.80;;;2.40;;
60239;SDS011;46102;39.012;-7.064;2022-11-18T03:37:08;17.50;;;2.05;;
60239;SDS011;46102;39.012;-7.064;2022-11-18T03:39:11;4.47;;;1.42;;
60239;SDS011;46102;39.012;-7.064;2022-11-18T03:41:16;10.02;;;1.60;;
60239;SDS011;46102;39.012;-7.064;2022-11-18T03:43:21;9.18;;;1.92;;
60239;SDS011;46102;39.012;-7.064;2022-11-18T03:45:27;8.93;;;1.88;;
60239;SDS011;46102;39.012;-7.064;2022-11-18T03:47:42;11.20;;;2.35;;
60239;SDS011;46102;39.012;-7.064;2022-11-18T03:49:51;12.10;;;2.13;;
60239;SDS011;46102;39.012;-7.064;2022-11-18T03:51:58;7.40;;;1.70;;
60239;SDS011;46102;39.012;-7.064;2022-11-18T03:54:07;8.80;;;1.75;;
60239;SDS011;46102;39.012;-7.064;2022-11-18T03:56:12;9.32;;;2.10;;
60239;SDS011;46102;39.012;-7.064;2022-11-18T03:58:23;4.35;;;1.40;;
60239;SDS011;46102;39.012;-7.064;2022-11-18T04:00:30;6.78;;;1.27;;
60239;SDS011;46102;39.012;-7.064;2022-11-18T04:02:37;8.68;;;1.70;;
60239;SDS011;46102;39.012;-7.064;2022-11-18T04:04:38;9.60;;;1.63;;
60239;SDS011;46102;39.012;-7.064;2022-11-18T04:06:47;8.73;;;1.75;;
60239;SDS011;46102;39.012;-7.064;2022-11-18T04:08:51;10.75;;;1.85;;
60239;SDS011;46102;39.012;-7.064;2022-11-18T04:11:05;10.30;;;1.83;;
60239;SDS011;46102;39.012;-7.064;2022-11-18T04:13:35;12.13;;;2.30;;
60239;SDS011;46102;39.012;-7.064;2022-11-18T04:15:39;7.20;;;1.67;;
60239;SDS011;46102;39.012;-7.064;2022-11-18T04:17:41;6.85;;;1.60;;
60239;SDS011;46102;39.012;-7.064;2022-11-18T04:19:42;7.22;;;1.70;;
60239;SDS011;46102;39.012;-7.064;2022-11-18T04:21:43;6.53;;;1.80;;
60239;SDS011;46102;39.012;-7.064;2022-11-18T04:23:43;4.00;;;1.75;;
60239;SDS011;46102;39.012;-7.064;2022-11-18T04:25:44;6.30;;;1.90;;
60239;SDS011;46102;39.012;-7.064;2022-11-18T04:27:45;9.73;;;2.00;;
60239;SDS011;46102;39.012;-7.064;2022-11-18T04:29:45;13.88;;;2.38;;
60239;SDS011;46102;39.012;-7.064;2022-11-18T04:31:46;15.65;;;2.33;;
60239;SDS011;46102;39.012;-7.064;2022-11-18T04:33:47;4.68;;;1.48;;
60239;SDS011;46102;39.012;-7.064;2022-11-18T04:35:47;10.77;;;1.83;;
60239;SDS011;46102;39.012;-7.064;2022-11-18T04:37:48;7.43;;;2.03;;
60239;SDS011;46102;39.012;-7.064;2022-11-18T04:39:49;8.77;;;1.88;;
60239;SDS011;46102;39.012;-7.064;2022-11-18T04:41:50;12.27;;;1.80;;
60239;SDS011;46102;39.012;-7.064;2022-11-18T04:43:56;11.02;;;1.73;;
60239;SDS011;46102;39.012;-7.064;2022-11-18T04:45:57;10.38;;;2.15;;
60239;SDS011;46102;39.012;-7.064;2022-11-18T04:47:58;10.43;;;1.80;;
60239;SDS011;46102;39.012;-7.064;2022-11-18T04:49:58;6.47;;;1.30;;
60239;SDS011;46102;39.012;-7.064;2022-11-18T04:51:59;9.55;;;1.92;;
60239;SDS011;46102;39.012;-7.064;2022-11-18T04:54:01;11.05;;;1.55;;
60239;SDS011;46102;39.012;-7.064;2022-11-18T04:56:03;8.40;;;1.27;;
60239;SDS011;46102;39.012;-7.064;2022-11-18T04:58:05;9.32;;;2.00;;
60239;SDS011;46102;39.012;-7.064;2022-11-18T05:00:06;9.50;;;1.48;;
60239;SDS011;46102;39.012;-7.064;2022-11-18T05:02:07;6.43;;;1.38;;
60239;SDS011;46102;39.012;-7.064;2022-11-18T05:04:11;9.52;;;1.77;;
60239;SDS011;46102;39.012;-7.064;2022-11-18T05:06:13;11.52;;;1.27;;
60239;SDS011;46102;39.012;-7.064;2022-11-18T05:08:13;18.63;;;1.88;;
60239;SDS011;46102;39.012;-7.064;2022-11-18T05:10:14;9.00;;;1.38;;
60239;SDS011;46102;39.012;-7.064;2022-11-18T05:12:15;5.03;;;1.35;;
60239;SDS011;46102;39.012;-7.064;2022-11-18T05:14:34;8.77;;;2.33;;
60239;SDS011;46102;39.012;-7.064;2022-11-18T05:16:35;11.85;;;2.05;;
60239;SDS011;46102;39.012;-7.064;2022-11-18T05:18:36;8.90;;;1.40;;
60239;SDS011;46102;39.012;-7.064;2022-11-18T05:20:36;9.55;;;1.48;;
60239;SDS011;46102;39.012;-7.064;2022-11-18T05:22:37;5.63;;;1.30;;
60239;SDS011;46102;39.012;-7.064;2022-11-18T05:24:39;10.68;;;1.83;;
60239;SDS011;46102;39.012;-7.064;2022-11-18T05:26:39;8.55;;;1.30;;
60239;SDS011;46102;39.012;-7.064;2022-11-18T05:28:40;12.23;;;1.35;;
60239;SDS011;46102;39.012;-7.064;2022-11-18T05:30:41;10.00;;;1.65;;
60239;SDS011;46102;39.012;-7.064;2022-11-18T05:32:41;7.63;;;1.30;;
60239;SDS011;46102;39.012;-7.064;2022-11-18T05:34:42;6.22;;;1.38;;
60239;SDS011;46102;39.012;-7.064;2022-11-18T05:36:43;5.88;;;1.75;;
60239;SDS011;46102;39.012;-7.064;2022-11-18T05:38:44;14.15;;;1.80;;
60239;SDS011;46102;39.012;-7.064;2022-11-18T05:40:45;3.83;;;1.33;;
60239;SDS011;46102;39.012;-7.064;2022-11-18T05:42:45;11.48;;;2.90;;
60239;SDS011;46102;39.012;-7.064;2022-11-18T05:45:05;6.53;;;1.58;;
60239;SDS011;46102;39.012;-7.064;2022-11-18T05:47:06;5.40;;;1.48;;
60239;SDS011;46102;39.012;-7.064;2022-11-18T05:49:06;5.95;;;1.55;;
60239;SDS011;46102;39.012;-7.064;2022-11-18T05:51:07;5.45;;;1.13;;
60239;SDS011;46102;39.012;-7.064;2022-11-18T05:53:08;3.00;;;1.00;;
60239;SDS011;46102;39.012;-7.064;2022-11-18T05:55:08;8.48;;;1.05;;
60239;SDS011;46102;39.012;-7.064;2022-11-18T05:57:12;7.45;;;1.73;;
60239;SDS011;46102;39.012;-7.064;2022-11-18T05:59:13;12.65;;;1.77;;
60239;SDS011;46102;39.012;-7.064;2022-11-18T06:01:15;11.82;;;1.60;;
60239;SDS011;46102;39.012;-7.064;2022-11-18T06:03:21;5.47;;;1.60;;
60239;SDS011;46102;39.012;-7.064;2022-11-18T06:05:24;10.80;;;1.15;;
60239;SDS011;46102;39.012;-7.064;2022-11-18T06:07:40;5.55;;;1.35;;
60239;SDS011;46102;39.012;-7.064;2022-11-18T06:09:42;6.28;;;1.35;;
60239;SDS011;46102;39.012;-7.064;2022-11-18T06:11:48;8.52;;;1.27;;
60239;SDS011;46102;39.012;-7.064;2022-11-18T06:13:54;4.80;;;1.20;;
60239;SDS011;46102;39.012;-7.064;2022-11-18T06:16:00;7.50;;;0.95;;
60239;SDS011;46102;39.012;-7.064;2022-11-18T06:18:10;5.32;;;1.42;;
60239;SDS011;46102;39.012;-7.064;2022-11-18T06:20:18;5.75;;;1.33;;
60239;SDS011;46102;39.012;-7.064;2022-11-18T06:22:19;10.50;;;1.48;;
60239;SDS011;46102;39.012;-7.064;2022-11-18T06:24:20;3.47;;;1.10;;
60239;SDS011;46102;39.012;-7.064;2022-11-18T06:26:22;6.82;;;1.00;;
60239;SDS011;46102;39.012;-7.064;2022-11-18T06:28:22;2.40;;;0.90;;
60239;SDS011;46102;39.012;-7.064;2022-11-18T06:30:23;4.47;;;1.30;;
60239;SDS011;46102;39.012;-7.064;2022-11-18T06:32:24;11.15;;;1.65;;
60239;SDS011;46102;39.012;-7.064;2022-11-18T06:34:25;2.58;;;1.65;;
60239;SDS011;46102;39.012;-7.064;2022-11-18T06:36:26;5.25;;;1.23;;
60239;SDS011;46102;39.012;-7.064;2022-11-18T06:38:27;4.60;;;1.23;;
60239;SDS011;46102;39.012;-7.064;2022-11-18T06:40:28;6.45;;;1.45;;
60239;SDS011;46102;39.012;-7.064;2022-11-18T06:42:29;4.72;;;1.20;;
60239;SDS011;46102;39.012;-7.064;2022-11-18T06:44:48;7.43;;;1.40;;
60239;SDS011;46102;39.012;-7.064;2022-11-18T06:46:48;1.80;;;0.68;;
60239;SDS011;46102;39.012;-7.064;2022-11-18T06:48:55;3.03;;;1.33;;
60239;SDS011;46102;39.012;-7.064;2022-11-18T06:50:56;6.35;;;1.63;;
60239;SDS011;46102;39.012;-7.064;2022-11-18T06:53:00;4.55;;;1.17;;
60239;SDS011;46102;39.012;-7.064;2022-11-18T06:55:01;5.35;;;1.02;;
60239;SDS011;46102;39.012;-7.064;2022-11-18T06:57:01;4.13;;;0.90;;
60239;SDS011;46102;39.012;-7.064;2022-11-18T06:59:02;3.72;;;1.45;;
60239;SDS011;46102;39.012;-7.064;2022-11-18T07:01:19;4.70;;;1.35;;
60239;SDS011;46102;39.012;-7.064;2022-11-18T07:03:22;10.45;;;1.30;;
60239;SDS011;46102;39.012;-7.064;2022-11-18T07:05:23;2.55;;;1.02;;
60239;SDS011;46102;39.012;-7.064;2022-11-18T07:07:23;3.85;;;1.20;;
60239;SDS011;46102;39.012;-7.064;2022-11-18T07:09:24;3.90;;;1.13;;
60239;SDS011;46102;39.012;-7.064;2022-11-18T07:11:25;6.80;;;1.92;;
60239;SDS011;46102;39.012;-7.064;2022-11-18T07:13:26;4.75;;;0.98;;
60239;SDS011;46102;39.012;-7.064;2022-11-18T07:15:26;4.22;;;1.20;;
60239;SDS011;46102;39.012;-7.064;2022-11-18T07:17:28;8.00;;;1.30;;
60239;SDS011;46102;39.012;-7.064;2022-11-18T07:19:29;4.13;;;0.95;;
60239;SDS011;46102;39.012;-7.064;2022-11-18T07:21:30;5.68;;;1.10;;
60239;SDS011;46102;39.012;-7.064;2022-11-18T07:23:31;3.92;;;1.20;;
60239;SDS011;46102;39.012;-7.064;2022-11-18T07:25:33;7.70;;;1.27;;
60239;SDS011;46102;39.012;-7.064;2022-11-18T07:27:33;3.95;;;1.40;;
60239;SDS011;46102;39.012;-7.064;2022-11-18T07:29:34;4.22;;;1.52;;
60239;SDS011;46102;39.012;-7.064;2022-11-18T07:31:35;5.43;;;1.30;;
60239;SDS011;46102;39.012;-7.064;2022-11-18T07:33:38;4.30;;;1.20;;
60239;SDS011;46102;39.012;-7.064;2022-11-18T07:35:39;5.50;;;1.20;;
60239;SDS011;46102;39.012;-7.064;2022-11-18T07:37:41;4.10;;;1.20;;
60239;SDS011;46102;39.012;-7.064;2022-11-18T07:39:42;7.88;;;2.00;;
60239;SDS011;46102;39.012;-7.064;2022-11-18T07:41:42;6.00;;;1.08;;
60239;SDS011;46102;39.012;-7.064;2022-11-18T07:43:43;7.65;;;2.25;;
60239;SDS011;46102;39.012;-7.064;2022-11-18T07:45:44;4.18;;;1.45;;
60239;SDS011;46102;39.012;-7.064;2022-11-18T07:47:45;5.95;;;1.20;;
60239;SDS011;46102;39.012;-7.064;2022-11-18T07:49:46;7.35;;;2.05;;
60239;SDS011;46102;39.012;-7.064;2022-11-18T07:51:46;2.45;;;1.45;;
60239;SDS011;46102;39.012;-7.064;2022-11-18T07:53:47;4.35;;;1.80;;
60239;SDS011;46102;39.012;-7.064;2022-11-18T07:55:48;4.75;;;1.33;;
60239;SDS011;46102;39.012;-7.064;2022-11-18T07:57:49;2.05;;;1.00;;
60239;SDS011;46102;39.012;-7.064;2022-11-18T07:59:50;4.47;;;1.00;;
60239;SDS011;46102;39.012;-7.064;2022-11-18T08:01:50;5.95;;;1.58;;
60239;SDS011;46102;39.012;-7.064;2022-11-18T08:03:51;3.63;;;1.33;;
60239;SDS011;46102;39.012;-7.064;2022-11-18T08:05:53;3.75;;;1.83;;
60239;SDS011;46102;39.012;-7.064;2022-11-18T08:07:58;6.07;;;1.60;;
60239;SDS011;46102;39.012;-7.064;2022-11-18T08:09:59;4.00;;;1.48;;
60239;SDS011;46102;39.012;-7.064;2022-11-18T08:12:02;1.40;;;0.77;;
60239;SDS011;46102;39.012;-7.064;2022-11-18T08:14:03;5.72;;;1.85;;
60239;SDS011;46102;39.012;-7.064;2022-11-18T08:16:04;5.45;;;1.40;;
60239;SDS011;46102;39.012;-7.064;2022-11-18T08:18:11;5.03;;;1.35;;
60239;SDS011;46102;39.012;-7.064;2022-11-18T08:20:12;5.13;;;1.33;;
60239;SDS011;46102;39.012;-7.064;2022-11-18T08:22:13;1.60;;;0.90;;
60239;SDS011;46102;39.012;-7.064;2022-11-18T08:24:16;5.32;;;1.20;;
60239;SDS011;46102;39.012;-7.064;2022-11-18T08:26:16;5.20;;;1.48;;
60239;SDS011;46102;39.012;-7.064;2022-11-18T08:28:18;1.30;;;0.70;;
60239;SDS011;46102;39.012;-7.064;2022-11-18T08:30:19;2.70;;;1.48;;
60239;SDS011;46102;39.012;-7.064;2022-11-18T08:32:19;7.03;;;0.60;;
60239;SDS011;46102;39.012;-7.064;2022-11-18T08:34:20;3.97;;;1.02;;
60239;SDS011;46102;39.012;-7.064;2022-11-18T08:36:21;6.65;;;1.25;;
60239;SDS011;46102;39.012;-7.064;2022-11-18T08:38:25;3.92;;;1.05;;
60239;SDS011;46102;39.012;-7.064;2022-11-18T08:40:26;4.15;;;1.00;;
60239;SDS011;46102;39.012;-7.064;2022-11-18T08:42:27;3.38;;;1.10;;
60239;SDS011;46102;39.012;-7.064;2022-11-18T08:44:28;3.08;;;1.17;;
60239;SDS011;46102;39.012;-7.064;2022-11-18T08:46:32;3.40;;;0.88;;
60239;SDS011;46102;39.012;-7.064;2022-11-18T08:48:33;4.35;;;1.00;;
60239;SDS011;46102;39.012;-7.064;2022-11-18T08:50:34;1.35;;;0.93;;
60239;SDS011;46102;39.012;-7.064;2022-11-18T08:52:35;6.63;;;1.27;;
60239;SDS011;46102;39.012;-7.064;2022-11-18T08:54:35;3.00;;;1.10;;
60239;SDS011;46102;39.012;-7.064;2022-11-18T08:56:36;3.83;;;1.13;;
60239;SDS011;46102;39.012;-7.064;2022-11-18T08:58:38;2.63;;;0.90;;
60239;SDS011;46102;39.012;-7.064;2022-11-18T09:00:39;3.47;;;1.05;;
60239;SDS011;46102;39.012;-7.064;2022-11-18T09:02:39;1.60;;;1.00;;
60239;SDS011;46102;39.012;-7.064;2022-11-18T09:04:40;1.92;;;0.70;;
60239;SDS011;46102;39.012;-7.064;2022-11-18T09:06:41;1.35;;;0.90;;
60239;SDS011;46102;39.012;-7.064;2022-11-18T09:08:42;3.28;;;1.10;;
60239;SDS011;46102;39.012;-7.064;2022-11-18T09:10:43;3.90;;;0.90;;
60239;SDS011;46102;39.012;-7.064;2022-11-18T09:12:43;6.18;;;1.40;;
60239;SDS011;46102;39.012;-7.064;2022-11-18T09:14:44;5.07;;;0.63;;
60239;SDS011;46102;39.012;-7.064;2022-11-18T09:16:45;2.00;;;0.70;;
60239;SDS011;46102;39.012;-7.064;2022-11-18T09:18:46;4.78;;;1.77;;
60239;SDS011;46102;39.012;-7.064;2022-11-18T09:20:53;5.35;;;0.82;;
60239;SDS011;46102;39.012;-7.064;2022-11-18T09:22:55;7.38;;;0.95;;
60239;SDS011;46102;39.012;-7.064;2022-11-18T09:24:56;1.80;;;0.80;;
60239;SDS011;46102;39.012;-7.064;2022-11-18T09:26:57;3.20;;;0.95;;
60239;SDS011;46102;39.012;-7.064;2022-11-18T09:28:57;1.70;;;0.80;;
60239;SDS011;46102;39.012;-7.064;2022-11-18T09:30:59;1.73;;;0.47;;
60239;SDS011;46102;39.012;-7.064;2022-11-18T09:33:03;2.00;;;0.68;;
60239;SDS011;46102;39.012;-7.064;2022-11-18T09:35:06;3.70;;;0.90;;
60239;SDS011;46102;39.012;-7.064;2022-11-18T09:37:07;6.57;;;0.70;;
60239;SDS011;46102;39.012;-7.064;2022-11-18T09:39:07;3.10;;;0.60;;
60239;SDS011;46102;39.012;-7.064;2022-11-18T09:43:11;1.52;;;0.90;;
60239;SDS011;46102;39.012;-7.064;2022-11-18T09:45:35;1.83;;;0.40;;
60239;SDS011;46102;39.012;-7.064;2022-11-18T09:47:43;5.53;;;0.70;;
60239;SDS011;46102;39.012;-7.064;2022-11-18T09:49:44;3.03;;;1.35;;
60239;SDS011;46102;39.012;-7.064;2022-11-18T09:51:46;1.83;;;0.70;;
60239;SDS011;46102;39.012;-7.064;2022-11-18T09:53:49;2.42;;;0.50;;
60239;SDS011;46102;39.012;-7.064;2022-11-18T09:55:50;1.17;;;0.60;;
60239;SDS011;46102;39.012;-7.064;2022-11-18T09:57:53;0.95;;;0.50;;
60239;SDS011;46102;39.012;-7.064;2022-11-18T09:59:58;1.58;;;0.50;;
60239;SDS011;46102;39.012;-7.064;2022-11-18T10:02:03;6.22;;;0.50;;
60239;SDS011;46102;39.012;-7.064;2022-11-18T10:04:22;2.35;;;0.50;;
60239;SDS011;46102;39.012;-7.064;2022-11-18T10:06:23;2.10;;;0.52;;
60239;SDS011;46102;39.012;-7.064;2022-11-18T10:11:00;1.23;;;0.65;;
60239;SDS011;46102;39.012;-7.064;2022-11-18T10:15:36;0.82;;;0.50;;
60239;SDS011;46102;39.012;-7.064;2022-11-18T10:17:51;2.05;;;0.50;;
60239;SDS011;46102;39.012;-7.064;2022-11-18T10:22:28;0.82;;;0.35;;
60239;SDS011;46102;39.012;-7.064;2022-11-18T10:24:37;2.53;;;0.77;;
60239;SDS011;46102;39.012;-7.064;2022-11-18T10:26:41;2.35;;;0.93;;
60239;SDS011;46102;39.012;-7.064;2022-11-18T10:28:41;2.38;;;0.50;;
60239;SDS011;46102;39.012;-7.064;2022-11-18T10:30:42;2.97;;;1.10;;
60239;SDS011;46102;39.012;-7.064;2022-11-18T10:32:53;3.40;;;0.73;;
60239;SDS011;46102;39.012;-7.064;2022-11-18T10:34:59;0.70;;;0.50;;
60239;SDS011;46102;39.012;-7.064;2022-11-18T10:37:12;1.10;;;0.50;;
60239;SDS011;46102;39.012;-7.064;2022-11-18T10:39:25;1.48;;;0.43;;
60239;SDS011;46102;39.012;-7.064;2022-11-18T10:41:26;1.13;;;0.60;;
60239;SDS011;46102;39.012;-7.064;2022-11-18T10:45:49;0.75;;;0.45;;
60239;SDS011;46102;39.012;-7.064;2022-11-18T10:50:26;1.55;;;0.63;;
60239;SDS011;46102;39.012;-7.064;2022-11-18T10:52:32;1.95;;;0.40;;
60239;SDS011;46102;39.012;-7.064;2022-11-18T10:57:14;1.80;;;0.80;;
60239;SDS011;46102;39.012;-7.064;2022-11-18T10:59:29;5.90;;;0.60;;
60239;SDS011;46102;39.012;-7.064;2022-11-18T11:01:30;1.83;;;0.50;;
60239;SDS011;46102;39.012;-7.064;2022-11-18T11:03:33;0.63;;;0.50;;
60239;SDS011;46102;39.012;-7.064;2022-11-18T11:05:36;3.08;;;0.57;;
60239;SDS011;46102;39.012;-7.064;2022-11-18T11:07:37;2.53;;;0.50;;
60239;SDS011;46102;39.012;-7.064;2022-11-18T11:09:38;1.95;;;0.95;;
60239;SDS011;46102;39.012;-7.064;2022-11-18T11:16:22;2.63;;;1.00;;
60239;SDS011;46102;39.012;-7.064;2022-11-18T11:18:27;0.70;;;0.30;;
60239;SDS011;46102;39.012;-7.064;2022-11-18T11:20:41;0.57;;;0.38;;
60239;SDS011;46102;39.012;-7.064;2022-11-18T11:22:43;1.77;;;0.47;;
60239;SDS011;46102;39.012;-7.064;2022-11-18T11:24:44;2.42;;;0.30;;
60239;SDS011;46102;39.012;-7.064;2022-11-18T11:26:51;4.68;;;0.50;;
60239;SDS011;46102;39.012;-7.064;2022-11-18T11:36:06;2.40;;;0.30;;
60239;SDS011;46102;39.012;-7.064;2022-11-18T11:44:58;0.38;;;0.35;;
60239;SDS011;46102;39.012;-7.064;2022-11-18T11:47:19;1.38;;;0.30;;
60239;SDS011;46102;39.012;-7.064;2022-11-18T11:52:03;1.48;;;0.38;;
60239;SDS011;46102;39.012;-7.064;2022-11-18T12:06:25;0.40;;;0.32;;
60239;SDS011;46102;39.012;-7.064;2022-11-18T12:08:28;0.93;;;0.35;;
60239;SDS011;46102;39.012;-7.064;2022-11-18T12:12:50;1.15;;;0.52;;
60239;SDS011;46102;39.012;-7.064;2022-11-18T12:14:53;2.42;;;1.13;;
60239;SDS011;46102;39.012;-7.064;2022-11-18T12:17:03;1.20;;;0.30;;
60239;SDS011;46102;39.012;-7.064;2022-11-18T12:23:47;2.55;;;0.50;;
60239;SDS011;46102;39.012;-7.064;2022-11-18T12:26:34;0.70;;;0.70;;
60239;SDS011;46102;39.012;-7.064;2022-11-18T12:28:38;0.30;;;0.30;;
60239;SDS011;46102;39.012;-7.064;2022-11-18T12:30:41;2.97;;;0.38;;
60239;SDS011;46102;39.012;-7.064;2022-11-18T12:32:42;2.67;;;0.68;;
60239;SDS011;46102;39.012;-7.064;2022-11-18T12:34:45;2.15;;;0.77;;
60239;SDS011;46102;39.012;-7.064;2022-11-18T12:37:36;1.55;;;0.38;;
60239;SDS011;46102;39.012;-7.064;2022-11-18T12:46:00;0.28;;;0.20;;
60239;SDS011;46102;39.012;-7.064;2022-11-18T12:48:01;2.63;;;0.82;;
60239;SDS011;46102;39.012;-7.064;2022-11-18T12:50:06;0.88;;;0.30;;
60239;SDS011;46102;39.012;-7.064;2022-11-18T12:54:37;0.57;;;0.50;;
60239;SDS011;46102;39.012;-7.064;2022-11-18T12:56:45;4.22;;;1.70;;
60239;SDS011;46102;39.012;-7.064;2022-11-18T12:58:49;3.03;;;0.67;;
60239;SDS011;46102;39.012;-7.064;2022-11-18T13:01:09;1.42;;;0.47;;
60239;SDS011;46102;39.012;-7.064;2022-11-18T13:03:12;1.95;;;0.40;;
60239;SDS011;46102;39.012;-7.064;2022-11-18T13:05:21;1.48;;;0.40;;
60239;SDS011;46102;39.012;-7.064;2022-11-18T13:07:23;0.70;;;0.50;;
60239;SDS011;46102;39.012;-7.064;2022-11-18T13:09:43;4.85;;;0.30;;
60239;SDS011;46102;39.012;-7.064;2022-11-18T13:11:46;3.10;;;0.40;;
60239;SDS011;46102;39.012;-7.064;2022-11-18T13:13:53;0.45;;;0.43;;
60239;SDS011;46102;39.012;-7.064;2022-11-18T13:16:19;2.25;;;0.60;;
60239;SDS011;46102;39.012;-7.064;2022-11-18T13:18:50;2.90;;;1.73;;
60239;SDS011;46102;39.012;-7.064;2022-11-18T13:20:54;4.18;;;1.40;;
60239;SDS011;46102;39.012;-7.064;2022-11-18T13:22:57;1.58;;;0.70;;
60239;SDS011;46102;39.012;-7.064;2022-11-18T13:25:37;1.65;;;0.70;;
60239;SDS011;46102;39.012;-7.064;2022-11-18T13:27:43;2.78;;;1.02;;
60239;SDS011;46102;39.012;-7.064;2022-11-18T13:29:51;1.65;;;1.17;;
60239;SDS011;46102;39.012;-7.064;2022-11-18T13:32:19;0.95;;;0.70;;
60239;SDS011;46102;39.012;-7.064;2022-11-18T13:34:26;2.90;;;2.37;;
60239;SDS011;46102;39.012;-7.064;2022-11-18T13:36:29;2.30;;;1.08;;
60239;SDS011;46102;39.012;-7.064;2022-11-18T13:38:32;0.80;;;0.70;;
60239;SDS011;46102;39.012;-7.064;2022-11-18T13:40:37;0.95;;;0.88;;
60239;SDS011;46102;39.012;-7.064;2022-11-18T13:43:03;2.67;;;0.65;;
60239;SDS011;46102;39.012;-7.064;2022-11-18T13:45:04;1.02;;;0.52;;
60239;SDS011;46102;39.012;-7.064;2022-11-18T13:49:43;0.40;;;0.40;;
60239;SDS011;46102;39.012;-7.064;2022-11-18T13:51:47;1.55;;;1.45;;
60239;SDS011;46102;39.012;-7.064;2022-11-18T13:53:50;0.73;;;0.28;;
60239;SDS011;46102;39.012;-7.064;2022-11-18T13:55:58;1.30;;;0.40;;